createdAt,value
2019-05-17T00:00:07.731Z,8.19
2019-05-17T00:01:07.742Z,8.20
2019-05-17T00:02:07.735Z,8.20
2019-05-17T00:03:07.735Z,8.18
2019-05-17T00:04:07.690Z,8.16
2019-05-17T00:05:07.679Z,8.16
2019-05-17T00:06:08.340Z,8.16
2019-05-17T00:07:07.680Z,8.18
2019-05-17T00:08:07.923Z,8.19
2019-05-17T00:09:07.638Z,8.19
2019-05-17T00:10:07.631Z,8.20
2019-05-17T00:11:07.609Z,8.20
2019-05-17T00:12:08.836Z,8.23
2019-05-17T00:13:10.971Z,8.23
2019-05-17T00:14:08.578Z,8.23
2019-05-17T00:15:07.568Z,8.25
2019-05-17T00:16:07.564Z,8.20
2019-05-17T00:17:07.574Z,8.20
2019-05-17T00:18:07.537Z,8.19
2019-05-17T00:19:07.676Z,8.19
2019-05-17T00:20:07.521Z,8.16
2019-05-17T00:21:07.858Z,8.18
2019-05-17T00:22:07.577Z,8.20
2019-05-17T00:23:07.491Z,8.18
2019-05-17T00:24:07.500Z,8.18
2019-05-17T00:25:07.625Z,8.18
2019-05-17T00:26:07.466Z,8.16
2019-05-17T00:27:07.467Z,8.16
2019-05-17T00:28:07.564Z,8.16
2019-05-17T00:29:07.418Z,8.12
2019-05-17T00:30:07.413Z,8.11
2019-05-17T00:31:07.405Z,8.12
2019-05-17T00:32:07.417Z,8.12
2019-05-17T00:33:08.059Z,8.11
2019-05-17T00:34:07.500Z,8.05
2019-05-17T00:35:07.612Z,7.98
2019-05-17T00:36:07.345Z,7.97
2019-05-17T00:37:07.380Z,7.92
2019-05-17T00:38:07.325Z,7.92
2019-05-17T00:39:08.293Z,7.90
2019-05-17T00:40:07.475Z,7.90
2019-05-17T00:41:07.301Z,7.93
2019-05-17T00:42:07.321Z,7.95
2019-05-17T00:43:07.270Z,7.93
2019-05-17T00:44:07.260Z,7.92
2019-05-17T00:45:07.250Z,7.97
2019-05-17T00:46:07.812Z,7.98
2019-05-17T00:47:07.278Z,8.02
2019-05-17T00:48:07.219Z,8.02
2019-05-17T00:49:07.208Z,8.01
2019-05-17T00:50:07.540Z,8.00
2019-05-17T00:51:10.091Z,7.98
2019-05-17T00:52:07.424Z,7.98
2019-05-17T00:53:07.548Z,7.98
2019-05-17T00:54:07.155Z,7.97
2019-05-17T00:55:07.155Z,7.97
2019-05-17T00:56:07.133Z,7.97
2019-05-17T00:57:07.645Z,7.98
2019-05-17T00:58:07.120Z,7.97
2019-05-17T00:59:07.504Z,7.98
2019-05-17T01:00:08.576Z,8.01
2019-05-17T01:01:08.251Z,8.04
2019-05-17T01:02:07.218Z,8.05
2019-05-17T01:03:07.378Z,8.05
2019-05-17T01:04:07.057Z,8.05
2019-05-17T01:05:07.042Z,8.04
2019-05-17T01:06:07.034Z,7.97
2019-05-17T01:07:07.089Z,7.97
2019-05-17T01:08:07.516Z,7.95
2019-05-17T01:09:07.778Z,7.93
2019-05-17T01:10:07.107Z,7.90
2019-05-17T01:11:07.896Z,7.89
2019-05-17T01:12:07.249Z,7.92
2019-05-17T01:13:07.128Z,7.93
2019-05-17T01:14:06.998Z,7.93
2019-05-17T01:15:07.583Z,8.00
2019-05-17T01:16:07.447Z,7.97
2019-05-17T01:17:07.301Z,7.98
2019-05-17T01:18:07.446Z,7.97
2019-05-17T01:19:07.018Z,8.04
2019-05-17T01:20:07.010Z,8.07
2019-05-17T01:21:06.879Z,8.07
2019-05-17T01:22:07.503Z,8.10
2019-05-17T01:23:07.602Z,8.11
2019-05-17T01:24:07.948Z,8.12
2019-05-17T01:25:06.830Z,8.12
2019-05-17T01:26:07.509Z,8.16
2019-05-17T01:27:06.849Z,8.16
2019-05-17T01:28:07.535Z,8.16
2019-05-17T01:29:06.937Z,8.19
2019-05-17T01:30:06.931Z,8.18
2019-05-17T01:31:07.564Z,8.19
2019-05-17T01:32:06.969Z,8.19
2019-05-17T01:33:06.986Z,8.22
2019-05-17T01:34:07.421Z,8.23
2019-05-17T01:35:07.399Z,8.26
2019-05-17T01:36:07.344Z,8.28
2019-05-17T01:37:06.769Z,8.26
2019-05-17T01:38:07.277Z,8.28
2019-05-17T01:39:15.224Z,8.28
2019-05-17T01:40:07.677Z,8.29
2019-05-17T01:41:07.061Z,8.30
2019-05-17T01:42:06.837Z,8.30
2019-05-17T01:43:07.875Z,8.28
2019-05-17T01:44:07.507Z,8.28
2019-05-17T01:45:07.248Z,8.28
2019-05-17T01:46:06.865Z,8.25
2019-05-17T01:47:07.426Z,8.28
2019-05-17T01:48:07.281Z,8.28
2019-05-17T01:49:06.975Z,8.28
2019-05-17T01:50:07.435Z,8.26
2019-05-17T01:51:07.535Z,8.25
2019-05-17T01:52:07.530Z,8.22
2019-05-17T01:53:07.331Z,8.16
2019-05-17T01:54:06.936Z,8.11
2019-05-17T01:55:06.709Z,8.08
2019-05-17T01:56:06.577Z,8.04
2019-05-17T01:57:07.291Z,7.98
2019-05-17T01:58:07.346Z,7.97
2019-05-17T01:59:06.956Z,7.92
2019-05-17T02:00:06.505Z,7.89
2019-05-17T02:01:07.606Z,7.87
2019-05-17T02:02:07.132Z,7.83
2019-05-17T02:03:07.069Z,7.86
2019-05-17T02:04:06.754Z,7.87
2019-05-17T02:05:06.601Z,7.87
2019-05-17T02:06:07.493Z,7.90
2019-05-17T02:07:06.940Z,7.93
2019-05-17T02:08:06.754Z,7.98
2019-05-17T02:09:06.501Z,8.01
2019-05-17T02:10:07.480Z,8.01
2019-05-17T02:11:07.076Z,8.04
2019-05-17T02:12:06.747Z,8.07
2019-05-17T02:13:06.732Z,8.07
2019-05-17T02:14:07.008Z,8.05
2019-05-17T02:15:06.929Z,8.05
2019-05-17T02:16:07.136Z,8.00
2019-05-17T02:17:06.831Z,8.01
2019-05-17T02:18:07.089Z,8.00
2019-05-17T02:19:06.716Z,7.98
2019-05-17T02:20:06.472Z,7.97
2019-05-17T02:21:06.612Z,8.00
2019-05-17T02:22:07.468Z,7.97
2019-05-17T02:23:07.572Z,7.97
2019-05-17T02:24:07.981Z,7.97
2019-05-17T02:25:07.310Z,7.97
2019-05-17T02:26:06.681Z,7.98
2019-05-17T02:27:06.191Z,7.98
2019-05-17T02:28:06.196Z,8.00
2019-05-17T02:29:06.154Z,8.01
2019-05-17T02:30:06.152Z,8.04
2019-05-17T02:31:06.148Z,8.05
2019-05-17T02:32:06.128Z,8.07
2019-05-17T02:33:06.133Z,8.11
2019-05-17T02:34:06.102Z,8.10
2019-05-17T02:35:06.095Z,8.12
2019-05-17T02:36:06.081Z,8.11
2019-05-17T02:37:06.170Z,8.11
2019-05-17T02:38:06.197Z,8.11
2019-05-17T02:39:06.049Z,8.11
2019-05-17T02:40:08.381Z,8.10
2019-05-17T02:41:06.062Z,8.12
2019-05-17T02:42:06.024Z,8.15
2019-05-17T02:43:06.646Z,8.15
2019-05-17T02:44:06.002Z,8.15
2019-05-17T02:45:05.995Z,8.18
2019-05-17T02:46:05.983Z,8.19
2019-05-17T02:47:05.965Z,8.18
2019-05-17T02:48:05.986Z,8.18
2019-05-17T02:49:06.094Z,8.18
2019-05-17T02:50:06.075Z,8.20
2019-05-17T02:51:05.924Z,8.20
2019-05-17T02:52:05.927Z,8.22
2019-05-17T02:53:05.932Z,8.23
2019-05-17T02:54:05.892Z,8.22
2019-05-17T02:55:05.882Z,8.25
2019-05-17T02:56:07.150Z,8.23
2019-05-17T02:57:05.867Z,8.25
2019-05-17T02:58:05.888Z,8.26
2019-05-17T02:59:05.842Z,8.23
2019-05-17T03:00:05.838Z,8.23
2019-05-17T03:01:05.817Z,8.23
2019-05-17T03:02:06.549Z,8.22
2019-05-17T03:03:05.802Z,8.20
2019-05-17T03:04:05.819Z,8.20
2019-05-17T03:05:05.784Z,8.20
2019-05-17T03:06:05.768Z,8.23
2019-05-17T03:07:05.777Z,8.22
2019-05-17T03:08:05.744Z,8.23
2019-05-17T03:09:05.759Z,8.19
2019-05-17T03:10:18.149Z,8.19
2019-05-17T03:11:06.735Z,8.19
2019-05-17T03:12:05.701Z,8.20
2019-05-17T03:13:05.692Z,8.23
2019-05-17T03:14:05.708Z,8.26
2019-05-17T03:15:05.670Z,8.23
2019-05-17T03:16:05.659Z,8.25
2019-05-17T03:17:05.650Z,8.28
2019-05-17T03:18:05.638Z,8.26
2019-05-17T03:19:05.656Z,8.28
2019-05-17T03:20:05.617Z,8.25
2019-05-17T03:21:05.614Z,8.25
2019-05-17T03:22:07.740Z,8.28
2019-05-17T03:23:05.605Z,8.30
2019-05-17T03:24:05.608Z,8.33
2019-05-17T03:25:05.565Z,8.33
2019-05-17T03:26:05.555Z,8.36
2019-05-17T03:27:05.553Z,8.38
2019-05-17T03:28:05.539Z,8.40
2019-05-17T03:29:05.552Z,8.43
2019-05-17T03:30:05.524Z,8.44
2019-05-17T03:31:08.537Z,8.43
2019-05-17T03:32:08.333Z,8.47
2019-05-17T03:33:07.783Z,8.50
2019-05-17T03:34:06.989Z,8.50
2019-05-17T03:35:07.428Z,8.53
2019-05-17T03:36:07.446Z,8.55
2019-05-17T03:37:06.973Z,8.55
2019-05-17T03:38:05.429Z,8.50
2019-05-17T03:39:05.444Z,8.52
2019-05-17T03:40:23.631Z,8.53
2019-05-17T03:41:17.753Z,8.52
2019-05-17T03:42:06.386Z,8.50
2019-05-17T03:43:05.375Z,8.52
2019-05-17T03:44:05.405Z,8.47
2019-05-17T03:45:05.354Z,8.44
2019-05-17T03:46:05.344Z,8.43
2019-05-17T03:47:05.345Z,8.41
2019-05-17T03:48:05.465Z,8.40
2019-05-17T03:49:05.343Z,8.38
2019-05-17T03:50:05.310Z,8.37
2019-05-17T03:51:05.293Z,8.38
2019-05-17T03:52:05.281Z,8.38
2019-05-17T03:53:05.279Z,8.38
2019-05-17T03:54:05.288Z,8.36
2019-05-17T03:55:05.250Z,8.37
2019-05-17T03:56:05.238Z,8.36
2019-05-17T03:57:05.914Z,8.36
2019-05-17T03:58:05.222Z,8.38
2019-05-17T03:59:05.234Z,8.38
2019-05-17T04:00:05.194Z,8.38
2019-05-17T04:01:05.186Z,8.38
2019-05-17T04:02:05.178Z,8.37
2019-05-17T04:03:05.179Z,8.37
2019-05-17T04:04:05.184Z,8.37
2019-05-17T04:05:05.222Z,8.36
2019-05-17T04:06:05.145Z,8.36
2019-05-17T04:07:05.130Z,8.36
2019-05-17T04:08:05.110Z,8.36
2019-05-17T04:09:05.138Z,8.34
2019-05-17T04:10:05.103Z,8.33
2019-05-17T04:11:20.429Z,8.36
2019-05-17T04:12:06.088Z,8.33
2019-05-17T04:13:05.060Z,8.34
2019-05-17T04:14:05.086Z,8.34
2019-05-17T04:15:05.039Z,8.33
2019-05-17T04:16:08.880Z,8.34
2019-05-17T04:17:05.026Z,8.37
2019-05-17T04:18:05.029Z,8.37
2019-05-17T04:19:04.996Z,8.40
2019-05-17T04:20:05.010Z,8.41
2019-05-17T04:21:04.974Z,8.44
2019-05-17T04:22:04.991Z,8.45
2019-05-17T04:23:04.964Z,8.47
2019-05-17T04:24:04.941Z,8.44
2019-05-17T04:25:04.959Z,8.47
2019-05-17T04:26:04.924Z,8.48
2019-05-17T04:27:04.912Z,8.47
2019-05-17T04:28:04.902Z,8.50
2019-05-17T04:29:04.911Z,8.48
2019-05-17T04:30:05.861Z,8.48
2019-05-17T04:31:04.890Z,8.53
2019-05-17T04:32:04.870Z,8.55
2019-05-17T04:33:05.478Z,8.56
2019-05-17T04:34:04.838Z,8.56
2019-05-17T04:35:04.859Z,8.56
2019-05-17T04:36:04.817Z,8.56
2019-05-17T04:37:05.794Z,8.61
2019-05-17T04:38:04.809Z,8.63
2019-05-17T04:39:04.785Z,8.68
2019-05-17T04:40:04.800Z,8.70
2019-05-17T04:41:04.763Z,8.70
2019-05-17T04:42:04.755Z,8.71
2019-05-17T04:43:04.744Z,8.71
2019-05-17T04:44:04.738Z,8.76
2019-05-17T04:45:04.744Z,8.76
2019-05-17T04:46:04.737Z,8.79
2019-05-17T04:47:04.702Z,8.79
2019-05-17T04:48:05.355Z,8.77
2019-05-17T04:49:04.681Z,8.77
2019-05-17T04:50:04.698Z,8.80
2019-05-17T04:51:04.660Z,8.80
2019-05-17T04:52:05.517Z,8.77
2019-05-17T04:53:04.637Z,8.83
2019-05-17T04:54:04.627Z,8.84
2019-05-17T04:55:04.677Z,8.83
2019-05-17T04:56:05.407Z,8.87
2019-05-17T04:57:04.596Z,8.86
2019-05-17T04:58:04.600Z,8.91
2019-05-17T04:59:04.575Z,8.94
2019-05-17T05:00:04.614Z,8.98
2019-05-17T05:01:04.617Z,8.96
2019-05-17T05:02:05.517Z,8.99
2019-05-17T05:03:04.671Z,9.02
2019-05-17T05:04:04.538Z,9.08
2019-05-17T05:05:04.547Z,9.10
2019-05-17T05:06:04.502Z,9.14
2019-05-17T05:07:04.491Z,9.14
2019-05-17T05:08:04.500Z,9.17
2019-05-17T05:09:05.419Z,9.15
2019-05-17T05:10:04.501Z,9.21
2019-05-17T05:11:04.544Z,9.21
2019-05-17T05:12:06.246Z,9.18
2019-05-17T05:13:04.428Z,9.21
2019-05-17T05:14:04.416Z,9.23
2019-05-17T05:15:04.429Z,9.23
2019-05-17T05:16:04.395Z,9.28
2019-05-17T05:17:05.054Z,9.32
2019-05-17T05:18:04.376Z,9.31
2019-05-17T05:19:04.976Z,9.35
2019-05-17T05:20:04.386Z,9.36
2019-05-17T05:21:04.363Z,9.36
2019-05-17T05:22:04.846Z,9.36
2019-05-17T05:23:05.105Z,9.38
2019-05-17T05:24:04.336Z,9.35
2019-05-17T05:25:04.299Z,9.39
2019-05-17T05:26:04.890Z,9.42
2019-05-17T05:27:04.279Z,9.47
2019-05-17T05:28:04.270Z,9.48
2019-05-17T05:29:04.257Z,9.48
2019-05-17T05:30:04.888Z,9.47
2019-05-17T05:31:04.257Z,9.50
2019-05-17T05:32:04.228Z,9.51
2019-05-17T05:33:04.219Z,9.53
2019-05-17T05:34:04.239Z,9.57
2019-05-17T05:35:04.195Z,9.58
2019-05-17T05:36:04.209Z,9.57
2019-05-17T05:37:04.176Z,9.65
2019-05-17T05:38:04.398Z,9.64
2019-05-17T05:39:04.160Z,9.65
2019-05-17T05:40:04.984Z,9.66
2019-05-17T05:41:04.158Z,9.71
2019-05-17T05:42:07.880Z,9.74
2019-05-17T05:43:05.109Z,9.74
2019-05-17T05:44:04.100Z,9.75
2019-05-17T05:45:04.090Z,9.78
2019-05-17T05:46:04.121Z,9.76
2019-05-17T05:47:04.070Z,9.79
2019-05-17T05:48:05.099Z,9.78
2019-05-17T05:49:04.088Z,9.83
2019-05-17T05:50:04.887Z,9.89
2019-05-17T05:51:05.955Z,9.87
2019-05-17T05:52:04.021Z,9.91
2019-05-17T05:53:04.038Z,9.96
2019-05-17T05:54:03.993Z,9.93
2019-05-17T05:55:04.145Z,9.93
2019-05-17T05:56:03.998Z,9.94
2019-05-17T05:57:03.963Z,9.94
2019-05-17T05:58:03.944Z,9.96
2019-05-17T05:59:03.940Z,9.99
2019-05-17T06:00:03.939Z,10.02
2019-05-17T06:01:03.950Z,10.04
2019-05-17T06:02:03.910Z,10.08
2019-05-17T06:03:04.295Z,10.12
2019-05-17T06:04:03.890Z,10.15
2019-05-17T06:05:03.879Z,10.17
2019-05-17T06:06:03.889Z,10.22
2019-05-17T06:07:03.897Z,10.22
2019-05-17T06:08:03.846Z,10.20
2019-05-17T06:09:03.835Z,10.18
2019-05-17T06:10:03.819Z,10.15
2019-05-17T06:11:03.867Z,10.17
2019-05-17T06:12:03.805Z,10.20
2019-05-17T06:13:03.801Z,10.23
2019-05-17T06:14:03.854Z,10.23
2019-05-17T06:15:03.774Z,10.27
2019-05-17T06:16:03.783Z,10.23
2019-05-17T06:17:03.757Z,10.27
2019-05-17T06:18:03.743Z,10.30
2019-05-17T06:19:03.733Z,10.33
2019-05-17T06:20:03.721Z,10.38
2019-05-17T06:21:03.732Z,10.42
2019-05-17T06:22:03.691Z,10.36
2019-05-17T06:23:03.710Z,10.42
2019-05-17T06:24:03.670Z,10.45
2019-05-17T06:25:04.208Z,10.51
2019-05-17T06:26:04.727Z,10.52
2019-05-17T06:27:03.646Z,10.52
2019-05-17T06:28:03.636Z,10.53
2019-05-17T06:29:03.626Z,10.59
2019-05-17T06:30:03.613Z,10.64
2019-05-17T06:31:03.603Z,10.70
2019-05-17T06:32:03.617Z,10.71
2019-05-17T06:33:03.603Z,10.73
2019-05-17T06:34:04.194Z,10.73
2019-05-17T06:35:03.562Z,10.79
2019-05-17T06:36:03.557Z,10.78
2019-05-17T06:37:03.596Z,10.71
2019-05-17T06:38:04.473Z,10.68
2019-05-17T06:39:03.521Z,10.63
2019-05-17T06:40:03.511Z,10.59
2019-05-17T06:41:03.500Z,10.52
2019-05-17T06:42:03.549Z,10.56
2019-05-17T06:43:04.450Z,10.61
2019-05-17T06:44:04.009Z,10.64
2019-05-17T06:45:03.460Z,10.70
2019-05-17T06:46:03.440Z,10.71
2019-05-17T06:47:03.458Z,10.79
2019-05-17T06:48:03.435Z,10.73
2019-05-17T06:49:03.422Z,10.76
2019-05-17T06:50:03.506Z,10.74
2019-05-17T06:51:03.392Z,10.79
2019-05-17T06:52:03.412Z,10.81
2019-05-17T06:53:03.392Z,10.74
2019-05-17T06:54:04.122Z,10.74
2019-05-17T06:55:05.812Z,10.74
2019-05-17T06:56:03.340Z,10.71
2019-05-17T06:57:03.508Z,10.70
2019-05-17T06:58:03.323Z,10.71
2019-05-17T06:59:03.309Z,10.73
2019-05-17T07:00:11.062Z,10.79
2019-05-17T07:01:04.287Z,10.78
2019-05-17T07:02:03.300Z,10.81
2019-05-17T07:03:03.267Z,10.84
2019-05-17T07:04:03.270Z,10.89
2019-05-17T07:05:03.246Z,10.94
2019-05-17T07:06:03.240Z,10.88
2019-05-17T07:07:04.109Z,10.89
2019-05-17T07:08:03.235Z,10.91
2019-05-17T07:09:03.746Z,10.91
2019-05-17T07:10:03.201Z,10.97
2019-05-17T07:11:03.176Z,10.99
2019-05-17T07:12:03.195Z,10.99
2019-05-17T07:13:03.163Z,10.99
2019-05-17T07:14:03.153Z,11.00
2019-05-17T07:15:04.271Z,11.03
2019-05-17T07:16:03.132Z,11.09
2019-05-17T07:17:03.164Z,11.06
2019-05-17T07:18:03.109Z,11.09
2019-05-17T07:19:03.100Z,11.17
2019-05-17T07:20:03.091Z,11.15
2019-05-17T07:21:03.694Z,11.17
2019-05-17T07:22:03.092Z,11.21
2019-05-17T07:23:03.057Z,11.19
2019-05-17T07:24:03.049Z,11.19
2019-05-17T07:25:03.038Z,11.14
2019-05-17T07:26:03.027Z,11.18
2019-05-17T07:27:03.116Z,11.18
2019-05-17T07:28:03.026Z,11.24
2019-05-17T07:29:02.993Z,11.22
2019-05-17T07:30:02.986Z,11.25
2019-05-17T07:31:02.975Z,11.29
2019-05-17T07:32:03.035Z,11.37
2019-05-17T07:33:03.812Z,11.42
2019-05-17T07:34:02.943Z,11.42
2019-05-17T07:35:02.931Z,11.47
2019-05-17T07:36:02.922Z,11.58
2019-05-17T07:37:02.911Z,11.57
2019-05-17T07:38:04.693Z,11.57
2019-05-17T07:39:02.890Z,11.62
2019-05-17T07:40:05.182Z,11.67
2019-05-17T07:41:02.869Z,11.60
2019-05-17T07:42:02.856Z,11.62
2019-05-17T07:43:10.417Z,11.64
2019-05-17T07:44:03.838Z,11.65
2019-05-17T07:45:02.825Z,11.72
2019-05-17T07:46:02.818Z,11.69
2019-05-17T07:47:02.797Z,11.72
2019-05-17T07:48:02.838Z,11.76
2019-05-17T07:49:02.860Z,11.82
2019-05-17T07:50:02.800Z,11.85
2019-05-17T07:51:02.763Z,11.94
2019-05-17T07:52:02.755Z,11.98
2019-05-17T07:53:02.763Z,12.01
2019-05-17T07:54:03.259Z,11.96
2019-05-17T07:55:03.664Z,11.98
2019-05-17T07:56:02.716Z,11.95
2019-05-17T07:57:02.781Z,11.98
2019-05-17T07:58:02.712Z,11.99
2019-05-17T07:59:02.679Z,12.07
2019-05-17T08:00:03.341Z,12.12
2019-05-17T08:01:02.659Z,12.17
2019-05-17T08:02:02.640Z,12.28
2019-05-17T08:03:02.685Z,12.29
2019-05-17T08:04:02.625Z,12.34
2019-05-17T08:05:02.608Z,12.35
2019-05-17T08:06:03.388Z,12.35
2019-05-17T08:07:02.628Z,12.38
2019-05-17T08:08:02.608Z,12.39
2019-05-17T08:09:04.360Z,12.46
2019-05-17T08:10:02.564Z,12.46
2019-05-17T08:11:02.545Z,12.50
2019-05-17T08:12:02.541Z,12.45
2019-05-17T08:13:02.557Z,12.47
2019-05-17T08:14:02.514Z,12.47
2019-05-17T08:15:02.504Z,12.49
2019-05-17T08:16:02.501Z,12.53
2019-05-17T08:17:02.491Z,12.60
2019-05-17T08:18:02.499Z,12.71
2019-05-17T08:19:02.464Z,12.79
2019-05-17T08:20:02.476Z,12.87
2019-05-17T08:21:02.439Z,12.90
2019-05-17T08:22:02.449Z,12.92
2019-05-17T08:23:05.056Z,12.89
2019-05-17T08:24:02.416Z,12.96
2019-05-17T08:25:02.398Z,12.92
2019-05-17T08:26:02.388Z,12.90
2019-05-17T08:27:02.376Z,12.89
2019-05-17T08:28:02.395Z,12.89
2019-05-17T08:29:03.256Z,12.86
2019-05-17T08:30:02.353Z,12.83
2019-05-17T08:31:02.337Z,12.83
2019-05-17T08:32:02.325Z,12.72
2019-05-17T08:33:02.366Z,12.74
2019-05-17T08:34:02.303Z,12.78
2019-05-17T08:35:02.293Z,12.78
2019-05-17T08:36:02.281Z,12.83
2019-05-17T08:37:02.271Z,12.74
2019-05-17T08:38:02.792Z,12.75
2019-05-17T08:39:02.283Z,12.82
2019-05-17T08:40:02.278Z,12.85
2019-05-17T08:41:02.222Z,12.86
2019-05-17T08:42:02.218Z,12.85
2019-05-17T08:43:02.228Z,12.87
2019-05-17T08:44:02.199Z,12.92
2019-05-17T08:45:02.728Z,12.87
2019-05-17T08:46:02.883Z,12.95
2019-05-17T08:47:02.727Z,12.97
2019-05-17T08:48:02.851Z,13.00
2019-05-17T08:49:02.137Z,13.10
2019-05-17T08:50:02.128Z,13.14
2019-05-17T08:51:02.825Z,13.26
2019-05-17T08:52:02.105Z,13.33
2019-05-17T08:53:02.096Z,13.41
2019-05-17T08:54:02.115Z,13.28
2019-05-17T08:55:02.073Z,13.30
2019-05-17T08:56:02.081Z,13.29
2019-05-17T08:57:02.054Z,13.33
2019-05-17T08:58:02.043Z,13.25
2019-05-17T08:59:02.074Z,13.30
2019-05-17T09:00:02.030Z,13.32
2019-05-17T09:01:02.038Z,13.45
2019-05-17T09:02:02.721Z,13.46
2019-05-17T09:03:01.988Z,13.51
2019-05-17T09:04:02.007Z,13.54
2019-05-17T09:05:01.994Z,13.62
2019-05-17T09:06:02.929Z,13.63
2019-05-17T09:07:03.208Z,13.64
2019-05-17T09:08:01.925Z,13.57
2019-05-17T09:09:01.946Z,13.62
2019-05-17T09:10:02.185Z,13.60
2019-05-17T09:11:01.898Z,13.66
2019-05-17T09:12:01.884Z,13.70
2019-05-17T09:13:01.874Z,13.73
2019-05-17T09:14:02.330Z,13.73
2019-05-17T09:15:01.851Z,13.81
2019-05-17T09:16:01.842Z,13.77
2019-05-17T09:17:01.837Z,13.82
2019-05-17T09:18:02.881Z,13.87
2019-05-17T09:19:01.864Z,13.91
2019-05-17T09:20:01.819Z,13.91
2019-05-17T09:21:01.790Z,13.99
2019-05-17T09:22:01.778Z,13.99
2019-05-17T09:23:01.768Z,13.89
2019-05-17T09:24:02.300Z,13.87
2019-05-17T09:25:01.754Z,13.89
2019-05-17T09:26:02.407Z,13.81
2019-05-17T09:27:01.758Z,13.88
2019-05-17T09:28:01.726Z,13.97
2019-05-17T09:29:01.767Z,14.09
2019-05-17T09:30:01.693Z,14.18
2019-05-17T09:31:01.684Z,14.25
2019-05-17T09:32:01.710Z,14.37
2019-05-17T09:33:01.666Z,14.40
2019-05-17T09:34:01.711Z,14.47
2019-05-17T09:35:01.642Z,14.57
2019-05-17T09:36:01.637Z,14.62
2019-05-17T09:37:01.626Z,14.65
2019-05-17T09:38:01.631Z,14.62
2019-05-17T09:39:01.648Z,14.72
2019-05-17T09:40:03.422Z,14.75
2019-05-17T09:41:01.570Z,14.83
2019-05-17T09:42:01.565Z,14.84
2019-05-17T09:43:01.551Z,14.91
2019-05-17T09:44:11.744Z,14.96
2019-05-17T09:45:02.538Z,14.99
2019-05-17T09:46:01.956Z,15.09
2019-05-17T09:47:01.518Z,14.96
2019-05-17T09:48:01.499Z,14.96
2019-05-17T09:49:01.534Z,14.99
2019-05-17T09:50:01.499Z,14.91
2019-05-17T09:51:01.478Z,15.02
2019-05-17T09:52:01.464Z,14.92
2019-05-17T09:53:01.446Z,14.94
2019-05-17T09:54:01.474Z,15.01
2019-05-17T09:55:03.367Z,15.01
2019-05-17T09:56:01.413Z,15.06
2019-05-17T09:57:01.412Z,15.14
2019-05-17T09:58:01.392Z,15.14
2019-05-17T09:59:01.388Z,15.32
2019-05-17T10:00:01.400Z,15.59
2019-05-17T10:01:01.704Z,15.68
2019-05-17T10:02:01.352Z,15.62
2019-05-17T10:03:01.339Z,15.54
2019-05-17T10:04:01.354Z,15.69
2019-05-17T10:05:01.684Z,15.84
2019-05-17T10:06:01.318Z,15.97
2019-05-17T10:07:01.296Z,16.02
2019-05-17T10:08:01.292Z,16.21
2019-05-17T10:09:01.275Z,16.31
2019-05-17T10:10:01.293Z,16.21
2019-05-17T10:11:08.426Z,16.42
2019-05-17T10:12:03.101Z,16.61
2019-05-17T10:13:01.234Z,16.53
2019-05-17T10:14:01.885Z,16.60
2019-05-17T10:15:01.243Z,16.57
2019-05-17T10:16:01.273Z,16.35
2019-05-17T10:17:01.227Z,16.58
2019-05-17T10:18:01.193Z,16.82
2019-05-17T10:19:01.218Z,16.70
2019-05-17T10:20:02.026Z,16.94
2019-05-17T10:21:01.149Z,17.34
2019-05-17T10:22:01.139Z,17.62
2019-05-17T10:23:01.128Z,17.89
2019-05-17T10:24:01.118Z,17.92
2019-05-17T10:25:01.134Z,17.81
2019-05-17T10:26:01.096Z,18.03
2019-05-17T10:27:01.108Z,18.11
2019-05-17T10:28:01.118Z,18.15
2019-05-17T10:29:01.067Z,18.26
2019-05-17T10:30:01.076Z,18.12
2019-05-17T10:31:02.273Z,18.26
2019-05-17T10:32:01.034Z,18.05
2019-05-17T10:33:01.024Z,18.21
2019-05-17T10:34:01.674Z,18.75
2019-05-17T10:35:01.668Z,18.99
2019-05-17T10:36:00.985Z,19.19
2019-05-17T10:37:00.974Z,18.65
2019-05-17T10:38:02.963Z,18.65
2019-05-17T10:39:00.952Z,18.81
2019-05-17T10:40:00.983Z,18.65
2019-05-17T10:41:00.932Z,19.26
2019-05-17T10:42:00.941Z,19.06
2019-05-17T10:43:00.928Z,19.39
2019-05-17T10:44:00.905Z,19.47
2019-05-17T10:45:00.921Z,19.71
2019-05-17T10:46:00.888Z,19.56
2019-05-17T10:47:00.879Z,19.77
2019-05-17T10:48:00.916Z,19.86
2019-05-17T10:49:00.853Z,20.02
2019-05-17T10:50:00.875Z,19.96
2019-05-17T10:51:00.829Z,19.81
2019-05-17T10:52:00.818Z,19.83
2019-05-17T10:53:00.823Z,19.04
2019-05-17T10:54:00.797Z,18.73
2019-05-17T10:55:00.837Z,18.76
2019-05-17T10:56:00.910Z,18.95
2019-05-17T10:57:00.766Z,18.99
2019-05-17T10:58:00.786Z,19.22
2019-05-17T10:59:00.743Z,19.92
2019-05-17T11:00:00.764Z,20.18
2019-05-17T11:01:00.999Z,19.51
2019-05-17T11:02:00.731Z,19.50
2019-05-17T11:03:00.705Z,19.46
2019-05-17T11:04:00.702Z,19.86
2019-05-17T11:05:01.030Z,19.83
2019-05-17T11:06:00.689Z,20.18
2019-05-17T11:07:01.485Z,19.81
2019-05-17T11:08:00.652Z,19.50
2019-05-17T11:09:00.643Z,19.32
2019-05-17T11:10:00.887Z,18.98
2019-05-17T11:11:00.611Z,18.76
2019-05-17T11:12:00.612Z,18.51
2019-05-17T11:13:02.118Z,18.45
2019-05-17T11:14:00.588Z,18.50
2019-05-17T11:15:11.106Z,18.36
2019-05-17T11:16:01.559Z,18.14
2019-05-17T11:17:00.549Z,17.99
2019-05-17T11:18:01.171Z,18.03
2019-05-17T11:19:00.528Z,18.07
2019-05-17T11:20:00.579Z,18.17
2019-05-17T11:21:00.515Z,18.27
2019-05-17T11:22:00.504Z,18.29
2019-05-17T11:23:00.494Z,18.30
2019-05-17T11:24:00.481Z,18.47
2019-05-17T11:25:00.496Z,18.20
2019-05-17T11:26:01.184Z,18.25
2019-05-17T11:27:00.444Z,18.37
2019-05-17T11:28:01.266Z,18.60
2019-05-17T11:29:00.423Z,18.57
2019-05-17T11:30:00.465Z,18.78
2019-05-17T11:31:00.409Z,18.73
2019-05-17T11:32:01.156Z,18.76
2019-05-17T11:33:01.142Z,19.26
2019-05-17T11:34:00.370Z,19.25
2019-05-17T11:35:02.045Z,19.22
2019-05-17T11:36:00.537Z,18.95
2019-05-17T11:37:00.339Z,18.52
2019-05-17T11:38:00.330Z,18.35
2019-05-17T11:39:00.337Z,18.45
2019-05-17T11:40:00.330Z,18.33
2019-05-17T11:41:19.562Z,18.10
2019-05-17T11:42:01.291Z,18.08
2019-05-17T11:43:00.278Z,18.10
2019-05-17T11:44:00.264Z,18.10
2019-05-17T11:45:00.285Z,18.17
2019-05-17T11:46:00.271Z,18.10
2019-05-17T11:47:00.235Z,17.78
2019-05-17T11:48:00.247Z,17.86
2019-05-17T11:49:00.218Z,17.86
2019-05-17T11:50:00.224Z,17.56
2019-05-17T11:51:00.213Z,17.63
2019-05-17T11:52:00.174Z,17.64
2019-05-17T11:53:00.822Z,17.54
2019-05-17T11:54:00.161Z,17.58
2019-05-17T11:55:00.172Z,17.59
2019-05-17T11:56:00.211Z,17.58
2019-05-17T11:57:00.123Z,17.43
2019-05-17T11:58:00.119Z,17.38
2019-05-17T11:59:00.110Z,17.37
2019-05-17T12:00:01.633Z,17.59
2019-05-17T12:01:00.110Z,17.79
2019-05-17T12:02:00.092Z,18.02
2019-05-17T12:03:00.067Z,18.00
2019-05-17T12:04:00.731Z,17.96
2019-05-17T12:05:00.045Z,18.03
2019-05-17T12:06:00.056Z,17.96
2019-05-17T12:07:00.061Z,18.10
2019-05-17T12:08:00.007Z,18.10
2019-05-17T12:09:00.000Z,18.15
2019-05-17T12:10:00.725Z,17.93
2019-05-17T12:11:00.170Z,17.74
2019-05-17T12:11:59.965Z,17.89
2019-05-17T12:12:59.954Z,17.82
2019-05-17T12:13:59.949Z,17.95
2019-05-17T12:14:59.935Z,18.11
2019-05-17T12:15:59.947Z,18.14
2019-05-17T12:16:59.913Z,18.20
2019-05-17T12:17:59.902Z,18.25
2019-05-17T12:18:59.915Z,18.44
2019-05-17T12:19:59.901Z,18.65
2019-05-17T12:20:59.899Z,18.47
2019-05-17T12:21:59.861Z,18.41
2019-05-17T12:22:59.849Z,18.52
2019-05-17T12:23:59.873Z,18.51
2019-05-17T12:24:59.827Z,18.42
2019-05-17T12:25:59.849Z,18.12
2019-05-17T12:26:59.824Z,18.15
2019-05-17T12:27:59.797Z,18.41
2019-05-17T12:28:59.785Z,18.52
2019-05-17T12:29:59.768Z,18.54
2019-05-17T12:30:59.801Z,18.65
2019-05-17T12:31:59.747Z,18.55
2019-05-17T12:32:59.746Z,18.51
2019-05-17T12:33:59.743Z,18.29
2019-05-17T12:34:59.719Z,18.18
2019-05-17T12:35:59.735Z,18.21
2019-05-17T12:36:59.721Z,18.29
2019-05-17T12:38:00.184Z,18.10
2019-05-17T12:38:59.676Z,18.29
2019-05-17T12:39:59.664Z,18.37
2019-05-17T12:40:59.684Z,18.36
2019-05-17T12:41:59.926Z,18.30
2019-05-17T12:42:59.632Z,18.29
2019-05-17T12:44:00.281Z,18.30
2019-05-17T12:44:59.612Z,18.35
2019-05-17T12:46:01.435Z,18.36
2019-05-17T12:46:59.591Z,18.48
2019-05-17T12:47:59.580Z,18.50
2019-05-17T12:49:02.078Z,18.58
2019-05-17T12:49:59.560Z,18.82
2019-05-17T12:50:59.575Z,19.04
2019-05-17T12:51:59.541Z,19.22
2019-05-17T12:52:59.584Z,19.43
2019-05-17T12:53:59.517Z,19.81
2019-05-17T12:54:59.564Z,19.88
2019-05-17T12:55:59.546Z,20.06
2019-05-17T12:56:59.486Z,20.28
2019-05-17T12:57:59.475Z,20.03
2019-05-17T12:58:59.500Z,19.86
2019-05-17T12:59:59.474Z,19.62
2019-05-17T13:01:00.275Z,20.03
2019-05-17T13:01:59.435Z,20.33
2019-05-17T13:03:00.389Z,20.21
2019-05-17T13:04:00.180Z,20.16